createdAt,value
2022-10-23T00:00:28.480Z,100
2022-10-23T00:10:30.608Z,100
2022-10-23T00:20:32.920Z,100
2022-10-23T00:30:35.077Z,100
2022-10-23T00:40:37.633Z,100
2022-10-23T00:50:39.308Z,100
2022-10-23T01:00:41.795Z,100
2022-10-23T01:10:44.339Z,100
2022-10-23T01:20:46.662Z,100
2022-10-23T01:30:48.517Z,100
2022-10-23T01:40:50.745Z,100
2022-10-23T01:50:52.712Z,100
2022-10-23T02:00:54.904Z,100
2022-10-23T02:10:57.263Z,100
2022-10-23T02:20:59.834Z,100
2022-10-23T02:31:02.379Z,100
2022-10-23T02:41:04.352Z,100
2022-10-23T02:51:06.078Z,100
2022-10-23T03:01:07.915Z,100
2022-10-23T03:11:10.034Z,100
2022-10-23T03:21:11.828Z,100
2022-10-23T03:31:13.589Z,100
2022-10-23T03:41:15.812Z,100
2022-10-23T03:51:17.703Z,100
2022-10-23T04:01:19.473Z,100
2022-10-23T04:11:21.697Z,100
2022-10-23T04:21:33.976Z,100
2022-10-23T04:31:36.459Z,100
2022-10-23T04:41:38.234Z,100
2022-10-23T04:51:40.220Z,100
2022-10-23T05:01:42.465Z,100
2022-10-23T05:11:44.079Z,100
2022-10-23T05:21:46.559Z,100
2022-10-23T05:31:48.317Z,100
2022-10-23T05:41:50.941Z,100
2022-10-23T05:51:53.428Z,100
2022-10-23T06:01:55.814Z,100
2022-10-23T06:11:58.015Z,100
2022-10-23T06:22:00.158Z,100
2022-10-23T06:32:02.376Z,100
2022-10-23T06:42:04.716Z,100
2022-10-23T06:52:10.948Z,100
2022-10-23T07:02:09.834Z,100
2022-10-23T07:12:11.862Z,100
2022-10-23T07:22:15.681Z,100
2022-10-23T07:32:16.740Z,100
2022-10-23T07:42:18.797Z,100
2022-10-23T07:52:21.352Z,100
2022-10-23T08:02:23.192Z,100
2022-10-23T08:12:25.448Z,100
2022-10-23T08:22:27.241Z,100
2022-10-23T08:32:29.847Z,100
2022-10-23T08:42:31.972Z,100
2022-10-23T08:52:34.044Z,100
2022-10-23T09:02:36.359Z,100
2022-10-23T09:12:38.703Z,100
2022-10-23T09:22:41.049Z,100
2022-10-23T09:32:42.845Z,100
2022-10-23T09:52:47.978Z,100
2022-10-23T10:02:50.410Z,100
2022-10-23T10:12:52.818Z,100
2022-10-23T10:22:55.337Z,100
2022-10-23T10:32:57.518Z,100
2022-10-23T10:53:01.654Z,100
2022-10-23T11:03:03.720Z,100
2022-10-23T11:13:06.111Z,100
2022-10-23T11:23:08.404Z,100
2022-10-23T11:33:11.004Z,100
2022-10-23T11:53:16.388Z,97
2022-10-23T12:03:17.910Z,95
2022-10-23T12:13:19.759Z,94
2022-10-23T12:23:21.576Z,93
2022-10-23T12:33:23.991Z,92
2022-10-23T12:43:25.919Z,91
2022-10-23T12:53:28.439Z,86
2022-10-23T13:03:30.848Z,81
2022-10-23T13:13:32.824Z,77
2022-10-23T13:23:34.452Z,77
2022-10-23T13:33:36.812Z,77
2022-10-23T13:43:38.528Z,76
2022-10-23T13:53:40.490Z,74
2022-10-23T14:03:42.616Z,74
2022-10-23T14:13:44.716Z,75
2022-10-23T14:23:47.291Z,72
2022-10-23T14:33:49.450Z,72
2022-10-23T14:43:51.523Z,73
2022-10-23T14:53:54.046Z,73
2022-10-23T15:03:55.533Z,74
2022-10-23T15:13:57.496Z,74
2022-10-23T15:23:59.701Z,76
2022-10-23T15:34:01.935Z,78
2022-10-23T15:44:04.543Z,78
2022-10-23T15:54:07.176Z,81
2022-10-23T16:04:09.307Z,83
2022-10-23T16:14:12.000Z,85
2022-10-23T16:24:14.260Z,88
2022-10-23T16:34:16.574Z,93
2022-10-23T16:44:18.822Z,97
2022-10-23T16:54:20.553Z,99
2022-10-23T17:04:22.314Z,98
2022-10-23T17:14:24.485Z,100
2022-10-23T17:24:26.384Z,100
2022-10-23T17:34:28.186Z,100
2022-10-23T17:44:30.506Z,100
2022-10-23T17:54:32.687Z,100
2022-10-23T18:04:35.247Z,100
2022-10-23T18:14:37.384Z,100
2022-10-23T18:24:39.099Z,100
2022-10-23T18:34:41.273Z,100
2022-10-23T18:44:43.668Z,100
2022-10-23T18:54:45.386Z,100
2022-10-23T19:04:47.387Z,100
2022-10-23T19:14:49.266Z,100
2022-10-23T19:24:50.966Z,100
2022-10-23T19:34:52.987Z,100
2022-10-23T19:44:55.500Z,100
2022-10-23T19:54:57.335Z,100
2022-10-23T20:04:59.549Z,100
2022-10-23T20:15:01.470Z,100
2022-10-23T20:25:03.379Z,100
2022-10-23T20:35:05.568Z,99
2022-10-23T20:55:10.533Z,96
2022-10-23T21:05:12.260Z,98
2022-10-23T21:15:14.358Z,96
2022-10-23T21:25:16.933Z,98
2022-10-23T21:35:19.102Z,100
2022-10-23T21:45:20.824Z,100
2022-10-23T21:55:22.711Z,100
2022-10-23T22:05:24.583Z,100
2022-10-23T22:25:29.071Z,100
2022-10-23T22:45:33.180Z,100
2022-10-23T22:55:35.192Z,100
2022-10-23T23:05:37.013Z,100
2022-10-23T23:15:39.017Z,100
2022-10-23T23:35:43.591Z,100
2022-10-23T23:45:45.378Z,100
2022-10-23T23:55:47.833Z,99
